Aviation Digital Data Service (ADDS)

Output produced by METARs form (1855 UTC 26 October 2021)
found at http://aviationweather.gov/metar/data/
 
METAR text: KSDF 261756Z 34009G17KT 10SM BKN038 15/06 A3004 RMK AO2 SLP171 T01500056 10150 20106 58010
Conditions at: KSDF (LOUISVILLE , KY, US) observed 1756 UTC 26 October 2021
Temperature: 15.0°C (59°F)
Dewpoint: 5.6°C (42°F) [RH = 53%]
Pressure (altimeter): 30.04 inches Hg (1017.4 mb)
[Sea-level pressure: 1017.1 mb]
Winds: from the NNW (340 degrees) at 10 MPH (9 knots; 4.6 m/s)
gusting to 20 MPH (17 knots; 8.7 m/s)
Visibility: 10 or more miles (16+ km)
Ceiling: 3800 feet AGL
Clouds: broken clouds at 3800 feet AGL
Weather: no significant weather observed at this time

METAR text: KSDF 261656Z 05008KT 10SM SCT035 14/05 A3006 RMK AO2 SLP178 T01440050
Conditions at: KSDF (LOUISVILLE , KY, US) observed 1656 UTC 26 October 2021
Temperature: 14.4°C (58°F)
Dewpoint: 5.0°C (41°F) [RH = 53%]
Pressure (altimeter): 30.06 inches Hg (1018.0 mb)
[Sea-level pressure: 1017.8 mb]
Winds: from the NE (50 degrees) at 9 MPH (8 knots; 4.1 m/s)
Visibility: 10 or more miles (16+ km)
Ceiling: at least 12,000 feet AGL
Clouds: scattered clouds at 3500 feet AGL
Weather: no significant weather observed at this time

METAR text: KSDF 261556Z 02011G18KT 10SM FEW030 13/06 A3007 RMK AO2 SLP182 T01330056
Conditions at: KSDF (LOUISVILLE , KY, US) observed 1556 UTC 26 October 2021
Temperature: 13.3°C (56°F)
Dewpoint: 5.6°C (42°F) [RH = 60%]
Pressure (altimeter): 30.07 inches Hg (1018.4 mb)
[Sea-level pressure: 1018.2 mb]
Winds: from the NNE (20 degrees) at 13 MPH (11 knots; 5.7 m/s)
gusting to 21 MPH (18 knots; 9.3 m/s)
Visibility: 10 or more miles (16+ km)
Ceiling: at least 12,000 feet AGL
Clouds: few clouds at 3000 feet AGL
Weather: no significant weather observed at this time

Forecast for: KSDF (LOUISVILLE , KY, US)
Text: KSDF 261720Z 2618/2724 01010KT P6SM SCT030
Forecast period: 1800 UTC 26 October 2021 to 0000 UTC 27 October 2021
Forecast type: FROM: standard forecast or significant change
Winds: from the N (10 degrees) at 12 MPH (10 knots; 5.1 m/s)
Visibility: 6 or more miles (10+ km)
Ceiling: at least 12,000 feet AGL
Clouds: scattered clouds at 3000 feet AGL
Weather: no significant weather forecast for this period
Text: FM270000 05004KT P6SM BKN250
Forecast period: 0000 to 1400 UTC 27 October 2021
Forecast type: FROM: standard forecast or significant change
Winds: from the NE (50 degrees) at 5 MPH (4 knots; 2.1 m/s)
Visibility: 6 or more miles (10+ km)
Ceiling: 25000 feet AGL
Clouds: broken clouds at 25000 feet AGL
Weather: no significant weather forecast for this period
Text: FM271400 09007KT P6SM SCT250
Forecast period: 1400 UTC 27 October 2021 to 0000 UTC 28 October 2021
Forecast type: FROM: standard forecast or significant change
Winds: from the E (90 degrees) at 8 MPH (7 knots; 3.6 m/s)
Visibility: 6 or more miles (10+ km)
Ceiling: at least 12,000 feet AGL
Clouds: scattered clouds at 25000 feet AGL
Weather: no significant weather forecast for this period